Time;durP1;ratioP1;P1;durP2;ratioP2;P2;SDS_P1;SDS_P2;PMS_P1;PMS_P2;Temp;Humidity;BMP_temperature;BMP_pressure;BME280_temperature;BME280_humidity;BME280_pressure;Samples;Min_cycle;Max_cycle;Signal;HPM_P1;HPM_P2
2023/02/06 00:07:09;;;;;;;1999.90;999.90;;;5.60;99.90;;;;;;6754362;88;20326;-77
2023/02/06 00:17:09;;;;;;;1999.90;999.90;;;5.60;99.90;;;;;;6738903;88;20192;-77
2023/02/06 00:27:10;;;;;;;1999.90;999.90;;;5.50;99.90;;;;;;6741215;88;20209;-77
2023/02/06 00:37:11;;;;;;;1999.90;999.90;;;5.50;99.90;;;;;;6749966;88;20250;-77
2023/02/06 00:47:11;;;;;;;1999.90;999.90;;;5.50;99.90;;;;;;6754025;88;20333;-77
2023/02/06 00:57:12;;;;;;;1999.90;999.90;;;5.40;99.90;;;;;;6753805;88;20286;-76
2023/02/06 01:07:12;;;;;;;1999.90;999.90;;;5.20;99.90;;;;;;6752720;88;21089;-77
2023/02/06 01:17:13;;;;;;;1999.90;999.90;;;5.10;99.90;;;;;;6750164;87;20200;-76
2023/02/06 01:27:13;;;;;;;1999.90;999.90;;;4.80;99.90;;;;;;6749748;88;20200;-77
2023/02/06 01:37:14;;;;;;;1999.90;999.90;;;4.50;99.90;;;;;;6756060;88;20637;-77
2023/02/06 01:47:14;;;;;;;1999.90;999.90;;;4.40;99.90;;;;;;6746122;88;22018;-77
2023/02/06 01:57:17;;;;;;;1999.90;999.90;;;4.30;99.90;;;;;;6741499;88;20291;-76
2023/02/06 02:07:25;;;;;;;1999.90;999.90;;;4.20;99.90;;;;;;6754603;88;20908;-76
2023/02/06 02:18:10;;;;;;;1999.90;999.90;;;4.00;99.90;;;;;;6751298;88;20949;-76
2023/02/06 02:28:28;;;;;;;1999.90;999.90;;;3.90;99.90;;;;;;6740074;88;20197;-76
2023/02/06 02:39:14;;;;;;;1999.90;999.90;;;3.70;99.90;;;;;;6736772;88;20636;-76
2023/02/06 02:49:22;;;;;;;1999.90;999.90;;;3.40;99.90;;;;;;6730530;88;20688;-76
2023/02/06 02:59:32;;;;;;;1999.90;999.90;;;3.10;99.90;;;;;;6738825;88;20201;-76
2023/02/06 03:09:47;;;;;;;1999.90;999.90;;;3.00;99.90;;;;;;6741244;88;20395;-76
2023/02/06 03:19:52;;;;;;;1999.90;999.90;;;2.90;99.90;;;;;;6736315;88;20205;-76
2023/02/06 03:29:55;;;;;;;1999.90;999.90;;;2.70;99.90;;;;;;6738259;88;20700;-77
2023/02/06 03:39:57;;;;;;;1999.90;999.90;;;2.40;99.90;;;;;;6748905;88;20233;-76
2023/02/06 03:49:59;;;;;;;1999.90;999.90;;;2.30;99.90;;;;;;6747911;88;20669;-76
2023/02/06 04:00:00;;;;;;;1999.90;999.90;;;2.10;99.90;;;;;;6742160;88;20325;-76
2023/02/06 04:10:01;;;;;;;1999.90;999.90;;;2.10;99.90;;;;;;6737356;88;20189;-76
2023/02/06 04:20:04;;;;;;;1999.90;999.90;;;2.00;99.90;;;;;;6749066;88;20192;-76
2023/02/06 04:30:05;;;;;;;1999.90;999.90;;;2.00;99.90;;;;;;6738871;88;20737;-76
2023/02/06 04:40:06;;;;;;;1999.90;999.90;;;2.00;99.90;;;;;;6741964;88;20188;-76
2023/02/06 04:50:07;;;;;;;1999.90;999.90;;;1.90;99.90;;;;;;6743138;88;20259;-76
2023/02/06 05:00:09;;;;;;;1999.90;999.90;;;1.70;99.90;;;;;;6737067;88;20364;-76
2023/02/06 05:10:10;;;;;;;1999.90;999.90;;;1.60;99.90;;;;;;6743955;88;20209;-76
2023/02/06 05:20:10;;;;;;;1999.90;999.90;;;1.70;99.90;;;;;;6751868;78;20627;-78
2023/02/06 05:30:11;;;;;;;1999.90;999.90;;;1.40;99.90;;;;;;6728768;88;20201;-77
2023/02/06 05:40:12;;;;;;;1999.90;999.90;;;1.50;99.90;;;;;;6727584;88;20637;-77
2023/02/06 05:50:13;;;;;;;1999.90;999.90;;;1.40;99.90;;;;;;6726483;88;20213;-77
2023/02/06 06:00:13;;;;;;;1999.90;999.90;;;1.60;99.90;;;;;;6730339;88;21036;-77
2023/02/06 06:10:14;;;;;;;1999.90;999.90;;;1.40;99.90;;;;;;6735950;88;20187;-77
2023/02/06 06:20:15;;;;;;;1999.90;999.90;;;1.30;99.90;;;;;;6731771;88;20271;-77
2023/02/06 06:30:16;;;;;;;1999.90;999.90;;;1.20;99.90;;;;;;6734552;88;20288;-76
2023/02/06 06:40:16;;;;;;;1999.90;999.90;;;1.00;99.90;;;;;;6730029;88;20194;-77
2023/02/06 06:50:17;;;;;;;1999.90;999.90;;;1.00;99.90;;;;;;6731822;88;20205;-77
2023/02/06 07:00:18;;;;;;;1999.90;999.90;;;1.10;99.90;;;;;;6734358;88;20536;-77
2023/02/06 07:10:19;;;;;;;1999.90;999.90;;;1.20;99.90;;;;;;6731367;88;20193;-75
2023/02/06 07:20:19;;;;;;;1999.90;999.90;;;1.30;99.90;;;;;;6723893;88;20964;-75
2023/02/06 07:30:20;;;;;;;1999.90;999.90;;;1.30;99.90;;;;;;6720333;88;20175;-75
2023/02/06 07:40:21;;;;;;;1999.90;999.90;;;1.60;99.90;;;;;;6720806;88;20507;-78
2023/02/06 07:50:21;;;;;;;1999.90;999.90;;;1.60;99.90;;;;;;6735632;88;20211;-77
2023/02/06 08:00:22;;;;;;;1999.90;999.90;;;1.60;99.90;;;;;;6734906;88;20192;-79
2023/02/06 08:10:23;;;;;;;1999.90;999.90;;;1.80;99.90;;;;;;6736653;88;20975;-77
2023/02/06 08:20:23;;;;;;;1999.90;999.90;;;1.70;99.90;;;;;;6738395;88;20546;-79
2023/02/06 08:30:24;;;;;;;1999.90;999.90;;;1.90;99.90;;;;;;6739194;88;20234;-78
2023/02/06 08:40:24;;;;;;;1999.90;999.90;;;2.00;99.90;;;;;;6729705;88;20256;-77
2023/02/06 08:50:25;;;;;;;1999.90;999.90;;;2.10;99.90;;;;;;6732807;88;20318;-78
2023/02/06 09:00:25;;;;;;;1999.90;999.90;;;2.50;99.90;;;;;;6733415;88;20182;-78
2023/02/06 09:10:26;;;;;;;1999.90;999.90;;;2.70;99.90;;;;;;6734333;88;20220;-77
2023/02/06 09:20:26;;;;;;;1999.90;999.90;;;2.80;99.90;;;;;;6733269;88;20308;-77
2023/02/06 09:30:27;;;;;;;1999.90;999.90;;;3.30;99.90;;;;;;6729515;88;20204;-79
2023/02/06 09:40:29;;;;;;;1999.90;999.90;;;3.60;99.90;;;;;;6735566;88;20560;-79
2023/02/06 09:50:45;;;;;;;1999.90;999.90;;;3.70;99.90;;;;;;6733337;88;20332;-76
2023/02/06 10:01:04;;;;;;;1999.90;999.90;;;3.90;99.90;;;;;;6728280;88;20297;-78
2023/02/06 10:11:46;;;;;;;1999.90;999.90;;;4.30;99.90;;;;;;6724419;88;20647;-77
2023/02/06 10:22:01;;;;;;;1999.90;999.90;;;4.60;99.90;;;;;;6721672;88;20217;-77
2023/02/06 10:32:30;;;;;;;1999.90;999.90;;;4.80;99.90;;;;;;6719021;88;20349;-77
2023/02/06 10:42:58;;;;;;;1999.90;999.90;;;5.60;99.90;;;;;;6724792;88;20224;-77
2023/02/06 10:53:05;;;;;;;1999.90;999.90;;;6.50;99.90;;;;;;6726071;88;20209;-77
2023/02/06 11:03:14;;;;;;;1999.90;999.90;;;6.00;99.90;;;;;;6733546;88;20584;-77
2023/02/06 11:13:37;;;;;;;1999.90;999.90;;;6.90;99.90;;;;;;6728716;88;20699;-77
2023/02/06 11:33:49;;;;;;;1999.90;999.90;;;8.20;99.90;;;;;;6751490;87;20204;-76
2023/02/06 11:43:52;;;;;;;1999.90;999.90;;;8.40;99.90;;;;;;6735102;88;20621;-75
2023/02/06 11:54:02;;;;;;;1999.90;999.90;;;9.70;99.90;;;;;;6735615;88;20210;-76
2023/02/06 12:04:02;;;;;;;1999.90;999.90;;;9.60;99.90;;;;;;6734373;88;20586;-77
2023/02/06 12:14:11;;;;;;;1999.90;999.90;;;8.90;99.90;;;;;;6736377;88;20192;-76
2023/02/06 12:24:20;;;;;;;1999.90;999.90;;;7.70;99.90;;;;;;6734919;88;20257;-76
2023/02/06 12:34:39;;;;;;;1999.90;999.90;;;8.40;99.90;;;;;;6734784;88;20734;-76
2023/02/06 12:44:44;;;;;;;1999.90;999.90;;;8.40;99.90;;;;;;6734492;88;20201;-76
2023/02/06 12:54:51;;;;;;;1999.90;999.90;;;7.80;99.90;;;;;;6740247;88;20716;-77
2023/02/06 13:04:53;;;;;;;1999.90;999.90;;;9.20;99.90;;;;;;6734491;88;20205;-76
2023/02/06 13:15:00;;;;;;;1999.90;999.90;;;8.30;99.90;;;;;;6734186;88;20189;-77
2023/02/06 13:25:21;;;;;;;1999.90;999.90;;;7.60;99.90;;;;;;6734558;88;20326;-76
2023/02/06 13:35:29;;;;;;;1999.90;999.90;;;7.70;99.90;;;;;;6733080;88;20229;-76
2023/02/06 13:45:48;;;;;;;1999.90;999.90;;;7.60;99.90;;;;;;6735622;88;20206;-76
2023/02/06 13:56:03;;;;;;;1999.90;999.90;;;8.10;99.90;;;;;;6738728;88;20248;-76
2023/02/06 14:06:09;;;;;;;1999.90;999.90;;;7.70;99.90;;;;;;6733026;88;20264;-77
2023/02/06 14:16:40;;;;;;;1999.90;999.90;;;7.40;99.90;;;;;;6732444;88;20210;-76
2023/02/06 14:27:09;;;;;;;1999.90;999.90;;;7.20;99.90;;;;;;6731942;88;20704;-75
2023/02/06 14:37:25;;;;;;;1999.90;999.90;;;7.20;99.90;;;;;;6733319;88;20595;-76
2023/02/06 14:47:28;;;;;;;;;;;7.00;99.90;;;;;;6734023;88;20191;-76
2023/02/06 14:57:30;;;;;;;1999.90;999.90;;;7.00;99.90;;;;;;6734439;88;20059;-76
2023/02/06 15:07:32;;;;;;;1999.90;999.90;;;6.90;99.90;;;;;;6731595;88;20614;-76
2023/02/06 15:17:33;;;;;;;1999.90;999.90;;;6.90;99.90;;;;;;6737843;88;20201;-75
2023/02/06 15:27:37;;;;;;;1999.90;999.90;;;6.50;99.90;;;;;;6730872;88;20640;-76
2023/02/06 15:37:38;;;;;;;1999.90;999.90;;;6.50;99.90;;;;;;6734750;88;20228;-76
2023/02/06 15:47:41;;;;;;;1999.90;999.90;;;6.30;99.90;;;;;;6733487;88;20793;-75
2023/02/06 15:57:43;;;;;;;1999.90;999.90;;;6.20;99.90;;;;;;6735389;88;20342;-75
2023/02/06 16:07:46;;;;;;;1999.90;999.90;;;6.00;99.90;;;;;;6736447;88;20271;-74
2023/02/06 16:17:47;;;;;;;1999.90;999.90;;;6.10;99.90;;;;;;6734579;88;20185;-76
2023/02/06 16:27:50;;;;;;;1999.90;999.90;;;5.90;99.90;;;;;;6734415;88;20326;-76
2023/02/06 16:37:52;;;;;;;1999.90;999.90;;;5.70;99.90;;;;;;6750780;88;20196;-75
2023/02/06 16:47:53;;;;;;;1999.90;999.90;;;5.80;99.90;;;;;;6742495;88;20192;-77
2023/02/06 16:57:58;;;;;;;1999.90;999.90;;;5.80;99.90;;;;;;6738464;88;20311;-76
2023/02/06 17:08:00;;;;;;;1999.90;999.90;;;5.80;99.90;;;;;;6740619;88;20317;-76
2023/02/06 17:18:01;;;;;;;1999.90;999.90;;;5.70;99.90;;;;;;6737517;88;20197;-77
2023/02/06 17:38:07;;;;;;;1999.90;999.90;;;5.50;99.90;;;;;;6750503;88;20239;-77
2023/02/06 17:48:07;;;;;;;1999.90;999.90;;;5.40;99.90;;;;;;6735593;88;20282;-78
2023/02/06 17:58:08;;;;;;;1999.90;999.90;;;5.10;99.90;;;;;;6750683;87;20234;-79
2023/02/06 18:08:09;;;;;;;1999.90;999.90;;;4.90;99.90;;;;;;6739393;88;20189;-78
2023/02/06 18:18:10;;;;;;;1999.90;999.90;;;4.70;99.90;;;;;;6734226;88;20232;-78
2023/02/06 18:28:12;;;;;;;1999.90;999.90;;;4.40;99.90;;;;;;6736978;88;20665;-77
2023/02/06 18:38:13;;;;;;;1999.90;999.90;;;4.20;99.90;;;;;;6737901;88;20191;-78
2023/02/06 18:48:13;;;;;;;1999.90;999.90;;;4.00;99.90;;;;;;6736191;88;20185;-76
2023/02/06 18:58:14;;;;;;;1999.90;999.90;;;3.70;99.90;;;;;;6744043;88;20323;-77
2023/02/06 19:08:14;;;;;;;1999.90;999.90;;;3.60;99.90;;;;;;6733618;88;20202;-79
2023/02/06 19:18:15;;;;;;;1999.90;999.90;;;3.20;99.90;;;;;;6738879;88;20239;-78
2023/02/06 19:28:15;;;;;;;1999.90;999.90;;;3.00;99.90;;;;;;6741567;87;20227;-78
2023/02/06 19:38:16;;;;;;;1999.90;999.90;;;3.20;99.90;;;;;;6748611;88;20497;-78
2023/02/06 19:48:16;;;;;;;1999.90;999.90;;;2.80;99.90;;;;;;6763491;88;20700;-77
2023/02/06 19:58:17;;;;;;;1999.90;999.90;;;2.80;99.90;;;;;;6755137;88;20293;-77
2023/02/06 20:08:17;;;;;;;1999.90;999.90;;;2.80;99.90;;;;;;6743681;88;20329;-76
2023/02/06 20:18:18;;;;;;;1999.90;999.90;;;2.60;99.90;;;;;;6736936;88;20302;-77
2023/02/06 20:28:19;;;;;;;1999.90;999.90;;;2.50;99.90;;;;;;6735563;88;20218;-76
2023/02/06 20:38:20;;;;;;;1999.90;999.90;;;2.40;99.90;;;;;;6737890;88;20184;-76
2023/02/06 20:48:20;;;;;;;1999.90;999.90;;;2.20;99.90;;;;;;6736985;88;20208;-77
2023/02/06 20:58:21;;;;;;;1999.90;999.90;;;2.00;99.90;;;;;;6742584;88;20551;-77
2023/02/06 21:08:22;;;;;;;1999.90;999.90;;;1.80;99.90;;;;;;6729959;88;20189;-79
2023/02/06 21:18:29;;;;;;;1999.90;999.90;;;1.90;99.90;;;;;;6736864;88;20641;-77
2023/02/06 21:28:31;;;;;;;1999.90;999.90;;;1.90;99.90;;;;;;6745875;88;20252;-76
2023/02/06 21:38:36;;;;;;;1999.90;999.90;;;2.30;99.90;;;;;;6752884;87;20641;-76
2023/02/06 21:48:37;;;;;;;1999.90;999.90;;;1.90;99.90;;;;;;6751958;87;20216;-77
2023/02/06 21:58:37;;;;;;;1999.90;999.90;;;1.80;99.90;;;;;;6752582;87;20207;-76
2023/02/06 22:08:41;;;;;;;1999.90;999.90;;;1.70;99.90;;;;;;6753582;88;20693;-76
2023/02/06 22:18:42;;;;;;;1999.90;999.90;;;1.70;99.90;;;;;;6753918;87;20211;-77
2023/02/06 22:28:43;;;;;;;1999.90;999.90;;;1.60;99.90;;;;;;6753738;87;20295;-77
2023/02/06 22:38:45;;;;;;;1999.90;999.90;;;1.60;99.90;;;;;;6753469;88;20496;-77
2023/02/06 22:48:46;;;;;;;1999.90;999.90;;;1.40;99.90;;;;;;6753925;87;20617;-76
2023/02/06 22:58:47;;;;;;;1999.90;999.90;;;1.10;99.90;;;;;;6753550;87;20183;-77
2023/02/06 23:08:48;;;;;;;1999.90;999.90;;;1.20;99.90;;;;;;6760461;87;20267;-77
2023/02/06 23:18:49;;;;;;;1999.90;999.90;;;1.20;99.90;;;;;;6752681;88;20188;-77
2023/02/06 23:28:50;;;;;;;1999.90;999.90;;;1.40;99.90;;;;;;6756240;78;20193;-75
2023/02/06 23:38:51;;;;;;;1999.90;999.90;;;1.20;99.90;;;;;;6751245;88;20208;-76
2023/02/06 23:48:53;;;;;;;1999.90;999.90;;;1.00;99.90;;;;;;6751878;88;20193;-75
2023/02/06 23:58:55;;;;;;;1999.90;999.90;;;1.10;99.90;;;;;;6751134;88;20218;-76
